Back to Top

Language: 

My Weather Underground Personal Weather Station Historical Data with Graphs...

Delerius Weather Station Historical Data
Daily Summary for June 20, 2017 Units:  Metric    English   Both
« Previous Day
Next Day »
Daily Weekly Monthly Yearly Custom
  High: Low: Average:
Temperature: 21.4 °C 15 °C 17.7 °C
Dew Point: 16.2 °C 13.2 °C 14.6 °C
Humidity: 90 % 72 % 83 %
Wind Speed: 11.3 km/h 1.6 km/h 7.1 km/h
Wind Gust: 22.5 km/h - -
Wind:- - ESE
Pressure: 1020.5 hPa 1017.8 hPa -
Precipitation: 0 mm    
Historical Graphs
 
 
Tabular Data for June 20, 2017
Time Temperature Dew Point Pressure Wind Wind Speed Wind Gust Humidity Rainfall Rate (Hourly) solar Conditions
00:04 21 °C 15.8 °C 1017.8 hPa NW 3.2 km/h 9.7 km/h 72 % 0 mm 0 W/m2
00:09 21.1 °C 15.8 °C 1017.8 hPa NW 3.2 km/h 11.3 km/h 72 % 0 mm 0 W/m2
00:14 21.2 °C 15.9 °C 1017.8 hPa NW 6.4 km/h 12.9 km/h 72 % 0 mm 0 W/m2
00:19 21.3 °C 16.1 °C 1018.2 hPa NW 8 km/h 14.5 km/h 72 % 0 mm 0 W/m2
00:25 21.4 °C 16.2 °C 1018.2 hPa NNW 8 km/h 17.7 km/h 72 % 0 mm 0 W/m2
00:30 21.4 °C 16.2 °C 1018.2 hPa NNW 9.7 km/h 22.5 km/h 72 % 0 mm 0 W/m2
00:35 21.4 °C 16.2 °C 1018.2 hPa North 9.7 km/h 22.5 km/h 72 % 0 mm 0 W/m2
00:40 21.2 °C 15.9 °C 1018.2 hPa North 9.7 km/h 20.9 km/h 72 % 0 mm 0 W/m2
00:45 21 °C 16 °C 1018.2 hPa North 11.3 km/h 20.9 km/h 73 % 0 mm 0 W/m2
00:50 20.7 °C 15.7 °C 1018.2 hPa North 11.3 km/h 19.3 km/h 73 % 0 mm 0 W/m2
00:55 20.4 °C 15.4 °C 1018.5 hPa NNE 11.3 km/h 20.9 km/h 73 % 0 mm 0 W/m2
01:00 20.2 °C 15.2 °C 1018.5 hPa North 9.7 km/h 20.9 km/h 73 % 0 mm 0 W/m2
01:05 20.1 °C 15.1 °C 1018.5 hPa North 11.3 km/h 19.3 km/h 73 % 0 mm 0 W/m2
01:10 19.9 °C 15.1 °C 1018.5 hPa NNW 11.3 km/h 19.3 km/h 74 % 0 mm 0 W/m2
01:16 19.8 °C 15.1 °C 1018.5 hPa NNW 9.7 km/h 19.3 km/h 74 % 0 mm 0 W/m2
01:21 19.7 °C 14.9 °C 1018.5 hPa NNW 6.4 km/h 19.3 km/h 74 % 0 mm 0 W/m2
01:26 19.6 °C 14.8 °C 1018.5 hPa NNW 4.8 km/h 14.5 km/h 74 % 0 mm 0 W/m2
01:31 19.6 °C 15.1 °C 1018.5 hPa NW 4.8 km/h 14.5 km/h 75 % 0 mm 0 W/m2
01:36 19.4 °C 14.8 °C 1018.5 hPa NW 3.2 km/h 12.9 km/h 75 % 0 mm 0 W/m2
01:41 19.3 °C 14.8 °C 1018.5 hPa NW 3.2 km/h 12.9 km/h 75 % 0 mm 0 W/m2
01:46 19.2 °C 14.7 °C 1018.5 hPa NW 4.8 km/h 12.9 km/h 75 % 0 mm 0 W/m2
01:51 19.1 °C 14.6 °C 1018.5 hPa NW 4.8 km/h 12.9 km/h 75 % 0 mm 0 W/m2
01:56 18.9 °C 14.6 °C 1018.5 hPa NW 3.2 km/h 14.5 km/h 76 % 0 mm 0 W/m2
02:01 18.8 °C 14.5 °C 1018.5 hPa NNW 4.8 km/h 16.1 km/h 76 % 0 mm 0 W/m2
02:06 18.7 °C 14.6 °C 1018.5 hPa NW 6.4 km/h 16.1 km/h 77 % 0 mm 0 W/m2
02:11 18.6 °C 14.5 °C 1018.5 hPa NW 4.8 km/h 14.5 km/h 77 % 0 mm 0 W/m2
02:16 18.6 °C 14.5 °C 1018.5 hPa NW 3.2 km/h 11.3 km/h 77 % 0 mm 0 W/m2
02:21 18.4 °C 14.3 °C 1018.5 hPa NW 4.8 km/h 12.9 km/h 77 % 0 mm 0 W/m2
02:26 18.3 °C 14.4 °C 1018.8 hPa NW 4.8 km/h 12.9 km/h 78 % 0 mm 0 W/m2
02:31 18.3 °C 14.4 °C 1018.5 hPa NW 4.8 km/h 12.9 km/h 78 % 0 mm 0 W/m2
02:36 18.3 °C 14.4 °C 1018.5 hPa NW 6.4 km/h 12.9 km/h 78 % 0 mm 0 W/m2
02:41 18.2 °C 14.3 °C 1018.8 hPa NW 6.4 km/h 12.9 km/h 78 % 0 mm 0 W/m2
02:46 18.2 °C 14.3 °C 1018.8 hPa NW 6.4 km/h 12.9 km/h 78 % 0 mm 0 W/m2
02:51 18.1 °C 14.2 °C 1018.8 hPa NW 4.8 km/h 12.9 km/h 78 % 0 mm 0 W/m2
02:56 18.1 °C 14.4 °C 1018.8 hPa NNW 4.8 km/h 12.9 km/h 79 % 0 mm 0 W/m2
03:01 18.1 °C 14.4 °C 1018.8 hPa North 4.8 km/h 11.3 km/h 79 % 0 mm 0 W/m2
03:11 17.9 °C 14.2 °C 1018.8 hPa North 4.8 km/h 12.9 km/h 79 % 0 mm 0 W/m2
03:16 17.8 °C 14.1 °C 1018.8 hPa North 6.4 km/h 17.7 km/h 79 % 0 mm 0 W/m2
03:21 17.7 °C 14.2 °C 1018.8 hPa North 9.7 km/h 17.7 km/h 80 % 0 mm 0 W/m2
03:26 17.5 °C 14 °C 1018.8 hPa North 8 km/h 16.1 km/h 80 % 0 mm 0 W/m2
03:31 17.3 °C 14 °C 1018.8 hPa North 8 km/h 17.7 km/h 81 % 0 mm 0 W/m2
03:36 17.2 °C 13.9 °C 1018.8 hPa North 9.7 km/h 20.9 km/h 81 % 0 mm 0 W/m2
03:41 17.1 °C 14 °C 1018.8 hPa North 9.7 km/h 20.9 km/h 82 % 0 mm 0 W/m2
03:46 17 °C 14.1 °C 1018.8 hPa North 9.7 km/h 16.1 km/h 83 % 0 mm 0 W/m2
03:51 16.9 °C 14 °C 1018.8 hPa North 8 km/h 14.5 km/h 83 % 0 mm 0 W/m2
03:56 16.8 °C 14.1 °C 1018.8 hPa North 9.7 km/h 17.7 km/h 84 % 0 mm 0 W/m2
04:01 16.8 °C 14.1 °C 1018.8 hPa North 11.3 km/h 17.7 km/h 84 % 0 mm 0 W/m2
04:06 16.7 °C 14 °C 1018.8 hPa North 9.7 km/h 17.7 km/h 84 % 0 mm 0 W/m2
04:11 16.7 °C 14.2 °C 1018.8 hPa North 9.7 km/h 17.7 km/h 85 % 0 mm 0 W/m2
04:16 16.6 °C 14.1 °C 1018.8 hPa North 9.7 km/h 17.7 km/h 85 % 0 mm 0 W/m2
04:21 16.6 °C 14.2 °C 1018.8 hPa NNW 11.3 km/h 22.5 km/h 86 % 0 mm 0 W/m2
04:26 16.5 °C 14.2 °C 1018.8 hPa North 11.3 km/h 22.5 km/h 86 % 0 mm 0 W/m2
04:31 16.5 °C 14.2 °C 1018.8 hPa North 8 km/h 16.1 km/h 86 % 0 mm 0 W/m2
04:36 16.4 °C 14.2 °C 1018.8 hPa North 9.7 km/h 19.3 km/h 87 % 0 mm 0 W/m2
04:41 16.3 °C 14.1 °C 1018.8 hPa North 11.3 km/h 19.3 km/h 87 % 0 mm 0 W/m2
04:47 16.2 °C 14.1 °C 1018.8 hPa NNE 11.3 km/h 20.9 km/h 87 % 0 mm 5 W/m2
04:51 16.2 °C 14.2 °C 1019.2 hPa North 11.3 km/h 20.9 km/h 88 % 0 mm 5 W/m2
04:57 16.2 °C 14.2 °C 1019.2 hPa North 11.3 km/h 19.3 km/h 88 % 0 mm 7 W/m2
05:02 16.1 °C 14.1 °C 1019.2 hPa North 11.3 km/h 19.3 km/h 88 % 0 mm 7 W/m2
05:07 16.1 °C 14.3 °C 1019.2 hPa North 9.7 km/h 19.3 km/h 89 % 0 mm 9 W/m2
05:12 16.1 °C 14.3 °C 1019.2 hPa North 8 km/h 19.3 km/h 89 % 0 mm 11 W/m2
05:17 16.1 °C 14.3 °C 1019.2 hPa North 6.4 km/h 12.9 km/h 89 % 0 mm 12 W/m2
05:22 16.1 °C 14.3 °C 1019.2 hPa North 6.4 km/h 16.1 km/h 89 % 0 mm 12 W/m2
05:27 16.2 °C 14.4 °C 1019.2 hPa North 4.8 km/h 16.1 km/h 89 % 0 mm 14 W/m2
05:32 16.2 °C 14.4 °C 1019.2 hPa North 4.8 km/h 12.9 km/h 89 % 0 mm 16 W/m2
05:37 16.2 °C 14.4 °C 1019.2 hPa North 6.4 km/h 12.9 km/h 89 % 0 mm 25 W/m2
05:42 16.2 °C 14.4 °C 1019.2 hPa North 6.4 km/h 16.1 km/h 89 % 0 mm 21 W/m2
05:47 16.2 °C 14.4 °C 1019.2 hPa North 8 km/h 16.1 km/h 89 % 0 mm 25 W/m2
05:52 16.2 °C 14.4 °C 1019.2 hPa North 8 km/h 14.5 km/h 89 % 0 mm 25 W/m2
05:57 16.2 °C 14.4 °C 1019.2 hPa North 8 km/h 14.5 km/h 89 % 0 mm 25 W/m2
06:02 16.2 °C 14.4 °C 1019.2 hPa North 8 km/h 14.5 km/h 89 % 0 mm 23 W/m2
06:07 16.2 °C 14.4 °C 1019.2 hPa North 6.4 km/h 11.3 km/h 89 % 0 mm 26 W/m2
06:08 16.2 °C 14.4 °C 1019.2 hPa North 6.4 km/h 11.3 km/h 89 % 0 mm 26 W/m2
06:13 16.2 °C 14.4 °C 1019.2 hPa North 4.8 km/h 11.3 km/h 89 % 0 mm 28 W/m2
06:18 16.3 °C 14.5 °C 1019.2 hPa North 8 km/h 16.1 km/h 89 % 0 mm 35 W/m2
06:23 16.3 °C 14.5 °C 1019.2 hPa North 8 km/h 16.1 km/h 89 % 0 mm 37 W/m2
06:29 16.3 °C 14.5 °C 1019.5 hPa North 4.8 km/h 12.9 km/h 89 % 0 mm 40 W/m2
06:34 16.3 °C 14.5 °C 1019.5 hPa North 4.8 km/h 16.1 km/h 89 % 0 mm 51 W/m2
06:39 16.3 °C 14.5 °C 1019.5 hPa North 8 km/h 16.1 km/h 89 % 0 mm 62 W/m2
06:44 16.3 °C 14.5 °C 1019.5 hPa NNE 6.4 km/h 12.9 km/h 89 % 0 mm 60 W/m2
06:49 16.4 °C 14.6 °C 1019.5 hPa NNE 6.4 km/h 14.5 km/h 89 % 0 mm 70 W/m2
06:54 16.4 °C 14.4 °C 1019.5 hPa NNE 6.4 km/h 16.1 km/h 88 % 0 mm 74 W/m2
06:59 16.4 °C 14.4 °C 1019.2 hPa NNE 6.4 km/h 16.1 km/h 88 % 0 mm 74 W/m2
07:04 16.5 °C 14.5 °C 1019.5 hPa NNE 4.8 km/h 11.3 km/h 88 % 0 mm 81 W/m2
07:09 16.5 °C 14.5 °C 1019.5 hPa NE 3.2 km/h 12.9 km/h 88 % 0 mm 56 W/m2
07:14 16.6 °C 14.6 °C 1019.5 hPa NE 3.2 km/h 12.9 km/h 88 % 0 mm 67 W/m2
07:19 16.6 °C 14.6 °C 1019.5 hPa NNE 1.6 km/h 9.7 km/h 88 % 0 mm 77 W/m2
07:24 16.7 °C 14.7 °C 1019.5 hPa NE 1.6 km/h 9.7 km/h 88 % 0 mm 70 W/m2
07:29 16.7 °C 14.5 °C 1019.5 hPa NE 4.8 km/h 12.9 km/h 87 % 0 mm 74 W/m2
07:34 16.7 °C 14.5 °C 1019.5 hPa NE 4.8 km/h 12.9 km/h 87 % 0 mm 90 W/m2
07:39 16.8 °C 14.6 °C 1019.5 hPa NE 3.2 km/h 9.7 km/h 87 % 0 mm 65 W/m2
07:44 16.8 °C 14.6 °C 1019.5 hPa NE 4.8 km/h 12.9 km/h 87 % 0 mm 74 W/m2
07:49 16.8 °C 14.6 °C 1019.5 hPa NE 6.4 km/h 14.5 km/h 87 % 0 mm 79 W/m2
07:54 16.8 °C 14.6 °C 1019.9 hPa NNE 6.4 km/h 14.5 km/h 87 % 0 mm 120 W/m2
07:59 16.8 °C 14.4 °C 1019.9 hPa NE 4.8 km/h 14.5 km/h 86 % 0 mm 88 W/m2
08:04 16.9 °C 14.6 °C 1019.9 hPa ENE 6.4 km/h 14.5 km/h 86 % 0 mm 132 W/m2
08:09 17 °C 14.7 °C 1019.9 hPa ENE 6.4 km/h 12.9 km/h 86 % 0 mm 91 W/m2
08:14 17.1 °C 14.7 °C 1019.9 hPa ENE 4.8 km/h 12.9 km/h 86 % 0 mm 128 W/m2
08:19 17.1 °C 14.6 °C 1019.9 hPa ENE 6.4 km/h 12.9 km/h 85 % 0 mm 104 W/m2
08:24 17.1 °C 14.6 °C 1019.9 hPa ENE 8 km/h 14.5 km/h 85 % 0 mm 113 W/m2
08:29 17.1 °C 14.6 °C 1019.9 hPa ENE 6.4 km/h 14.5 km/h 85 % 0 mm 114 W/m2
08:35 17.1 °C 14.6 °C 1019.9 hPa ENE 4.8 km/h 11.3 km/h 85 % 0 mm 135 W/m2
08:40 17.2 °C 14.4 °C 1019.9 hPa ENE 6.4 km/h 12.9 km/h 84 % 0 mm 155 W/m2
08:45 17.3 °C 14.8 °C 1019.9 hPa NE 6.4 km/h 12.9 km/h 85 % 0 mm 132 W/m2
08:50 17.3 °C 14.6 °C 1019.9 hPa NE 6.4 km/h 16.1 km/h 84 % 0 mm 195 W/m2
08:55 17.4 °C 14.7 °C 1019.9 hPa ENE 6.4 km/h 16.1 km/h 84 % 0 mm 155 W/m2
09:00 17.5 °C 14.8 °C 1019.9 hPa NE 6.4 km/h 12.9 km/h 84 % 0 mm 127 W/m2
09:05 17.6 °C 14.9 °C 1019.9 hPa NE 6.4 km/h 16.1 km/h 84 % 0 mm 199 W/m2
09:10 17.6 °C 14.9 °C 1019.9 hPa NE 6.4 km/h 16.1 km/h 84 % 0 mm 185 W/m2
09:15 17.7 °C 14.9 °C 1019.9 hPa NE 6.4 km/h 14.5 km/h 84 % 0 mm 218 W/m2
09:20 17.8 °C 14.9 °C 1020.2 hPa NE 6.4 km/h 14.5 km/h 83 % 0 mm 197 W/m2
09:25 17.9 °C 14.8 °C 1020.2 hPa NE 6.4 km/h 16.1 km/h 82 % 0 mm 218 W/m2
09:30 17.9 °C 14.8 °C 1020.2 hPa ENE 8 km/h 16.1 km/h 82 % 0 mm 169 W/m2
09:35 17.9 °C 14.8 °C 1020.2 hPa ENE 6.4 km/h 16.1 km/h 82 % 0 mm 192 W/m2
09:40 17.9 °C 14.8 °C 1020.2 hPa NE 6.4 km/h 14.5 km/h 82 % 0 mm 146 W/m2
09:45 17.9 °C 14.8 °C 1020.2 hPa NE 6.4 km/h 14.5 km/h 82 % 0 mm 162 W/m2
09:50 17.9 °C 14.8 °C 1020.2 hPa ENE 6.4 km/h 12.9 km/h 82 % 0 mm 139 W/m2
09:53 18 °C 14.9 °C 1020.2 hPa ENE 8 km/h 16.1 km/h 82 % 0 mm 125 W/m2
09:58 18 °C 14.9 °C 1020.2 hPa NE 8 km/h 16.1 km/h 82 % 0 mm 148 W/m2
10:03 17.9 °C 14.8 °C 1020.2 hPa NE 8 km/h 14.5 km/h 82 % 0 mm 251 W/m2
10:08 18 °C 14.7 °C 1020.2 hPa ENE 8 km/h 14.5 km/h 81 % 0 mm 171 W/m2
10:13 18.1 °C 14.8 °C 1020.2 hPa East 8 km/h 14.5 km/h 81 % 0 mm 172 W/m2
10:18 18.1 °C 14.8 °C 1020.2 hPa East 6.4 km/h 14.5 km/h 81 % 0 mm 234 W/m2
10:23 18.2 °C 14.9 °C 1020.2 hPa East 6.4 km/h 16.1 km/h 81 % 0 mm 151 W/m2
10:28 18.3 °C 14.8 °C 1020.2 hPa East 8 km/h 16.1 km/h 80 % 0 mm 185 W/m2
10:33 18.3 °C 14.8 °C 1020.2 hPa East 6.4 km/h 11.3 km/h 80 % 0 mm 169 W/m2
10:38 18.3 °C 14.8 °C 1020.5 hPa East 6.4 km/h 11.3 km/h 80 % 0 mm 193 W/m2
10:43 18.2 °C 14.9 °C 1020.5 hPa East 6.4 km/h 17.7 km/h 81 % 0 mm 218 W/m2
10:48 18.2 °C 14.9 °C 1020.5 hPa East 8 km/h 17.7 km/h 81 % 0 mm 257 W/m2
10:53 18.3 °C 14.8 °C 1020.5 hPa East 6.4 km/h 12.9 km/h 80 % 0 mm 250 W/m2
10:58 18.4 °C 15.1 °C 1020.5 hPa East 4.8 km/h 12.9 km/h 81 % 0 mm 227 W/m2
11:03 18.6 °C 15.1 °C 1020.5 hPa East 4.8 km/h 14.5 km/h 80 % 0 mm 250 W/m2
11:08 18.6 °C 14.9 °C 1020.5 hPa East 6.4 km/h 16.1 km/h 79 % 0 mm 369 W/m2
11:13 18.8 °C 14.9 °C 1020.5 hPa East 8 km/h 17.7 km/h 78 % 0 mm 299 W/m2
11:18 18.9 °C 15 °C 1020.5 hPa East 9.7 km/h 17.7 km/h 78 % 0 mm 304 W/m2
11:22 18.9 °C 15 °C 1020.5 hPa East 9.7 km/h 17.7 km/h 78 % 0 mm 292 W/m2
11:27 18.9 °C 14.8 °C 1020.5 hPa East 8 km/h 17.7 km/h 77 % 0 mm 313 W/m2
11:32 18.8 °C 14.9 °C 1020.5 hPa East 9.7 km/h 17.7 km/h 78 % 0 mm 225 W/m2
11:37 18.8 °C 14.9 °C 1020.5 hPa East 9.7 km/h 16.1 km/h 78 % 0 mm 315 W/m2
11:42 18.9 °C 15 °C 1020.5 hPa East 8 km/h 16.1 km/h 78 % 0 mm 387 W/m2
11:47 19 °C 15.1 °C 1020.5 hPa East 8 km/h 16.1 km/h 78 % 0 mm 360 W/m2
11:52 19.1 °C 14.9 °C 1020.5 hPa East 6.4 km/h 14.5 km/h 77 % 0 mm 355 W/m2
11:57 19.3 °C 15.2 °C 1020.5 hPa East 6.4 km/h 16.1 km/h 77 % 0 mm 287 W/m2
12:02 19.3 °C 14.9 °C 1020.5 hPa East 8 km/h 16.1 km/h 76 % 0 mm 251 W/m2
12:07 19.2 °C 15.1 °C 1020.5 hPa East 8 km/h 14.5 km/h 77 % 0 mm 285 W/m2
12:12 19.3 °C 15.2 °C 1020.5 hPa East 6.4 km/h 16.1 km/h 77 % 0 mm 341 W/m2
12:17 19.4 °C 15.3 °C 1020.5 hPa ESE 8 km/h 17.7 km/h 77 % 0 mm 410 W/m2
12:22 19.4 °C 15.1 °C 1020.5 hPa East 9.7 km/h 17.7 km/h 76 % 0 mm 431 W/m2
12:27 19.4 °C 15.1 °C 1020.5 hPa East 9.7 km/h 20.9 km/h 76 % 0 mm 381 W/m2
12:32 19.3 °C 14.9 °C 1020.5 hPa East 11.3 km/h 20.9 km/h 76 % 0 mm 297 W/m2
12:38 19.2 °C 15.1 °C 1020.5 hPa East 9.7 km/h 17.7 km/h 77 % 0 mm 304 W/m2
12:43 19.1 °C 14.9 °C 1020.5 hPa East 8 km/h 16.1 km/h 77 % 0 mm 394 W/m2
12:48 19.1 °C 14.9 °C 1020.5 hPa East 8 km/h 16.1 km/h 77 % 0 mm 250 W/m2
12:53 19.1 °C 14.9 °C 1020.5 hPa ESE 9.7 km/h 19.3 km/h 77 % 0 mm 211 W/m2
12:58 18.9 °C 15 °C 1020.5 hPa East 9.7 km/h 19.3 km/h 78 % 0 mm 234 W/m2
13:03 18.8 °C 14.9 °C 1020.5 hPa East 6.4 km/h 16.1 km/h 78 % 0 mm 200 W/m2
13:08 18.7 °C 15 °C 1020.5 hPa East 8 km/h 17.7 km/h 79 % 0 mm 260 W/m2
13:13 18.7 °C 15 °C 1020.2 hPa East 8 km/h 17.7 km/h 79 % 0 mm 278 W/m2
13:18 18.7 °C 15 °C 1020.2 hPa East 8 km/h 16.1 km/h 79 % 0 mm 269 W/m2
13:23 18.6 °C 14.9 °C 1020.2 hPa ESE 9.7 km/h 16.1 km/h 79 % 0 mm 163 W/m2
13:28 18.5 °C 15 °C 1020.2 hPa East 9.7 km/h 17.7 km/h 80 % 0 mm 156 W/m2
13:33 18.3 °C 15 °C 1020.2 hPa ENE 9.7 km/h 17.7 km/h 81 % 0 mm 163 W/m2
13:38 18.3 °C 15 °C 1020.2 hPa ENE 6.4 km/h 12.9 km/h 81 % 0 mm 163 W/m2
13:43 18.3 °C 15 °C 1020.2 hPa ENE 8 km/h 16.1 km/h 81 % 0 mm 183 W/m2
13:48 18.3 °C 15 °C 1020.2 hPa ENE 8 km/h 16.1 km/h 81 % 0 mm 227 W/m2
13:53 18.3 °C 15 °C 1020.2 hPa ENE 8 km/h 14.5 km/h 81 % 0 mm 199 W/m2
13:58 18.3 °C 15 °C 1020.2 hPa ENE 8 km/h 14.5 km/h 81 % 0 mm 172 W/m2
14:03 18.3 °C 15 °C 1020.2 hPa ENE 8 km/h 14.5 km/h 81 % 0 mm 178 W/m2
14:08 18.3 °C 15 °C 1020.2 hPa East 8 km/h 17.7 km/h 81 % 0 mm 216 W/m2
14:13 18.2 °C 14.9 °C 1020.2 hPa East 8 km/h 17.7 km/h 81 % 0 mm 197 W/m2
14:18 18.3 °C 15 °C 1020.2 hPa ENE 8 km/h 14.5 km/h 81 % 0 mm 155 W/m2
14:23 18.3 °C 15 °C 1020.2 hPa ENE 8 km/h 17.7 km/h 81 % 0 mm 162 W/m2
14:28 18.2 °C 14.9 °C 1020.2 hPa ENE 8 km/h 17.7 km/h 81 % 0 mm 179 W/m2
14:33 18.3 °C 15 °C 1020.2 hPa East 8 km/h 14.5 km/h 81 % 0 mm 162 W/m2
14:38 18.3 °C 15.2 °C 1020.2 hPa East 6.4 km/h 14.5 km/h 82 % 0 mm 163 W/m2
14:43 18.3 °C 15.2 °C 1020.2 hPa ENE 8 km/h 19.3 km/h 82 % 0 mm 153 W/m2
14:48 18.3 °C 15.2 °C 1020.2 hPa ENE 9.7 km/h 19.3 km/h 82 % 0 mm 167 W/m2
14:53 18.3 °C 15.2 °C 1020.2 hPa ENE 8 km/h 17.7 km/h 82 % 0 mm 169 W/m2
14:58 18.3 °C 15.2 °C 1020.2 hPa ENE 6.4 km/h 14.5 km/h 82 % 0 mm 169 W/m2
15:03 18.4 °C 15.1 °C 1019.9 hPa East 4.8 km/h 14.5 km/h 81 % 0 mm 181 W/m2
15:08 18.4 °C 15.1 °C 1019.9 hPa ENE 8 km/h 16.1 km/h 81 % 0 mm 190 W/m2
15:13 18.6 °C 15.1 °C 1019.9 hPa ENE 8 km/h 16.1 km/h 80 % 0 mm 216 W/m2
15:18 18.6 °C 15.1 °C 1019.9 hPa East 8 km/h 12.9 km/h 80 % 0 mm 197 W/m2
15:23 18.6 °C 15.1 °C 1019.9 hPa East 8 km/h 14.5 km/h 80 % 0 mm 156 W/m2
15:28 18.6 °C 15.1 °C 1019.9 hPa ENE 8 km/h 14.5 km/h 80 % 0 mm 188 W/m2
15:33 18.6 °C 15.1 °C 1020.2 hPa East 8 km/h 14.5 km/h 80 % 0 mm 186 W/m2
15:38 18.7 °C 15.2 °C 1019.9 hPa East 6.4 km/h 12.9 km/h 80 % 0 mm 165 W/m2
15:44 18.8 °C 15.3 °C 1019.9 hPa ENE 4.8 km/h 14.5 km/h 80 % 0 mm 148 W/m2
15:48 18.8 °C 15.3 °C 1020.2 hPa East 4.8 km/h 14.5 km/h 80 % 0 mm 162 W/m2
15:49 18.8 °C 15.3 °C 1019.9 hPa East 4.8 km/h 14.5 km/h 80 % 0 mm 162 W/m2
15:54 18.9 °C 15.2 °C 1019.9 hPa East 6.4 km/h 12.9 km/h 79 % 0 mm 186 W/m2
15:59 18.9 °C 15.2 °C 1019.9 hPa East 6.4 km/h 14.5 km/h 79 % 0 mm 158 W/m2
16:04 18.9 °C 15.2 °C 1019.9 hPa ENE 6.4 km/h 14.5 km/h 79 % 0 mm 167 W/m2
16:09 18.9 °C 15.2 °C 1019.9 hPa East 4.8 km/h 14.5 km/h 79 % 0 mm 185 W/m2
16:14 19 °C 15.3 °C 1019.9 hPa ENE 4.8 km/h 11.3 km/h 79 % 0 mm 162 W/m2
16:19 18.9 °C 15.2 °C 1019.9 hPa ENE 6.4 km/h 12.9 km/h 79 % 0 mm 183 W/m2
16:24 19 °C 15.3 °C 1019.9 hPa ENE 6.4 km/h 12.9 km/h 79 % 0 mm 199 W/m2
16:29 19.1 °C 15.4 °C 1019.5 hPa ENE 6.4 km/h 16.1 km/h 79 % 0 mm 188 W/m2
16:34 19.1 °C 15.2 °C 1019.5 hPa East 6.4 km/h 16.1 km/h 78 % 0 mm 179 W/m2
16:39 19.2 °C 15.3 °C 1019.5 hPa East 6.4 km/h 12.9 km/h 78 % 0 mm 172 W/m2
16:44 19.2 °C 15.3 °C 1019.5 hPa East 6.4 km/h 14.5 km/h 78 % 0 mm 172 W/m2
16:49 19.2 °C 15.3 °C 1019.5 hPa East 8 km/h 14.5 km/h 78 % 0 mm 149 W/m2
16:54 19.2 °C 15.3 °C 1019.5 hPa ENE 6.4 km/h 16.1 km/h 78 % 0 mm 153 W/m2
16:59 19.2 °C 15.3 °C 1019.5 hPa ENE 6.4 km/h 16.1 km/h 78 % 0 mm 132 W/m2
17:04 19.1 °C 15.2 °C 1019.5 hPa East 6.4 km/h 16.1 km/h 78 % 0 mm 135 W/m2
17:09 19.1 °C 15.2 °C 1019.5 hPa East 6.4 km/h 16.1 km/h 78 % 0 mm 113 W/m2
17:14 19 °C 15.3 °C 1019.5 hPa ENE 8 km/h 19.3 km/h 79 % 0 mm 116 W/m2
17:19 19 °C 15.3 °C 1019.5 hPa ENE 8 km/h 19.3 km/h 79 % 0 mm 125 W/m2
17:24 18.9 °C 15.2 °C 1019.5 hPa ENE 8 km/h 17.7 km/h 79 % 0 mm 113 W/m2
17:29 18.8 °C 15.1 °C 1019.5 hPa East 9.7 km/h 17.7 km/h 79 % 0 mm 95 W/m2
17:34 18.7 °C 15 °C 1019.5 hPa ENE 9.7 km/h 16.1 km/h 79 % 0 mm 102 W/m2
17:39 18.6 °C 15.1 °C 1019.5 hPa ENE 8 km/h 16.1 km/h 80 % 0 mm 102 W/m2
17:44 18.6 °C 15.1 °C 1019.5 hPa ENE 8 km/h 17.7 km/h 80 % 0 mm 100 W/m2
17:49 18.5 °C 15 °C 1019.5 hPa ENE 9.7 km/h 17.7 km/h 80 % 0 mm 102 W/m2
17:54 18.4 °C 14.9 °C 1019.5 hPa ENE 9.7 km/h 16.1 km/h 80 % 0 mm 95 W/m2
17:59 18.4 °C 14.9 °C 1019.2 hPa ENE 8 km/h 16.1 km/h 80 % 0 mm 104 W/m2
18:04 18.4 °C 14.9 °C 1019.2 hPa ENE 8 km/h 17.7 km/h 80 % 0 mm 88 W/m2
18:09 18.3 °C 15 °C 1019.5 hPa ENE 9.7 km/h 19.3 km/h 81 % 0 mm 84 W/m2
18:14 18.2 °C 14.9 °C 1019.5 hPa ENE 9.7 km/h 19.3 km/h 81 % 0 mm 84 W/m2
18:19 18.1 °C 14.8 °C 1019.5 hPa ENE 9.7 km/h 19.3 km/h 81 % 0 mm 77 W/m2
18:24 18.1 °C 14.8 °C 1019.5 hPa ENE 9.7 km/h 19.3 km/h 81 % 0 mm 77 W/m2
18:30 17.9 °C 14.8 °C 1019.5 hPa East 8 km/h 14.5 km/h 82 % 0 mm 58 W/m2
18:35 17.9 °C 14.8 °C 1019.5 hPa East 6.4 km/h 14.5 km/h 82 % 0 mm 56 W/m2
18:40 17.8 °C 14.7 °C 1019.5 hPa ENE 6.4 km/h 14.5 km/h 82 % 0 mm 62 W/m2
18:45 17.8 °C 14.7 °C 1019.5 hPa ENE 8 km/h 16.1 km/h 82 % 0 mm 72 W/m2
18:50 17.7 °C 14.6 °C 1019.5 hPa ENE 8 km/h 16.1 km/h 82 % 0 mm 62 W/m2
18:55 17.6 °C 14.7 °C 1019.5 hPa ENE 8 km/h 16.1 km/h 83 % 0 mm 51 W/m2
19:00 17.5 °C 14.6 °C 1019.5 hPa ENE 6.4 km/h 14.5 km/h 83 % 0 mm 49 W/m2
19:05 17.5 °C 14.6 °C 1019.5 hPa East 6.4 km/h 16.1 km/h 83 % 0 mm 49 W/m2
19:10 17.4 °C 14.5 °C 1019.5 hPa East 6.4 km/h 16.1 km/h 83 % 0 mm 51 W/m2
19:15 17.3 °C 14.6 °C 1019.5 hPa East 8 km/h 12.9 km/h 84 % 0 mm 51 W/m2
19:20 17.3 °C 14.6 °C 1019.5 hPa East 8 km/h 14.5 km/h 84 % 0 mm 40 W/m2
19:25 17.2 °C 14.4 °C 1019.5 hPa ENE 8 km/h 14.5 km/h 84 % 0 mm 37 W/m2
19:30 17.1 °C 14.4 °C 1019.5 hPa ENE 9.7 km/h 17.7 km/h 84 % 0 mm 33 W/m2
19:35 17 °C 14.3 °C 1019.5 hPa ENE 8 km/h 17.7 km/h 84 % 0 mm 35 W/m2
19:40 16.9 °C 14.3 °C 1019.5 hPa East 6.4 km/h 14.5 km/h 85 % 0 mm 37 W/m2
19:45 16.9 °C 14.3 °C 1019.5 hPa East 6.4 km/h 14.5 km/h 85 % 0 mm 33 W/m2
19:50 16.8 °C 14.3 °C 1019.5 hPa ENE 6.4 km/h 19.3 km/h 85 % 0 mm 25 W/m2
19:55 16.8 °C 14.3 °C 1019.5 hPa ENE 8 km/h 19.3 km/h 85 % 0 mm 23 W/m2
20:00 16.7 °C 14.2 °C 1019.5 hPa ENE 6.4 km/h 16.1 km/h 85 % 0 mm 21 W/m2
20:05 16.7 °C 14.3 °C 1019.5 hPa ENE 4.8 km/h 14.5 km/h 86 % 0 mm 18 W/m2
20:15 16.6 °C 14.2 °C 1019.9 hPa ENE 6.4 km/h 16.1 km/h 86 % 0 mm 14 W/m2
20:20 16.4 °C 14.1 °C 1019.9 hPa ENE 9.7 km/h 17.7 km/h 86 % 0 mm 12 W/m2
20:25 16.3 °C 13.9 °C 1019.9 hPa ENE 9.7 km/h 17.7 km/h 86 % 0 mm 12 W/m2
20:30 16.2 °C 14.1 °C 1019.9 hPa ENE 9.7 km/h 17.7 km/h 87 % 0 mm 12 W/m2
20:35 16.1 °C 13.9 °C 1019.9 hPa ENE 9.7 km/h 17.7 km/h 87 % 0 mm 12 W/m2
20:40 15.9 °C 13.9 °C 1019.9 hPa ENE 9.7 km/h 17.7 km/h 88 % 0 mm 12 W/m2
20:45 15.9 °C 13.9 °C 1019.9 hPa ENE 8 km/h 17.7 km/h 88 % 0 mm 11 W/m2
20:50 15.8 °C 13.8 °C 1020.2 hPa ENE 8 km/h 17.7 km/h 88 % 0 mm 11 W/m2
20:55 15.8 °C 13.8 °C 1020.2 hPa ENE 6.4 km/h 14.5 km/h 88 % 0 mm 11 W/m2
21:00 15.8 °C 13.8 °C 1019.9 hPa ENE 8 km/h 14.5 km/h 88 % 0 mm 9 W/m2
21:05 15.8 °C 14 °C 1020.2 hPa ENE 8 km/h 14.5 km/h 89 % 0 mm 7 W/m2
21:11 15.7 °C 13.9 °C 1019.9 hPa East 6.4 km/h 14.5 km/h 89 % 0 mm 7 W/m2
21:16 15.6 °C 13.8 °C 1019.9 hPa ENE 8 km/h 16.1 km/h 89 % 0 mm 5 W/m2
21:21 15.6 °C 13.8 °C 1019.9 hPa ENE 8 km/h 16.1 km/h 89 % 0 mm 0 W/m2
21:26 15.5 °C 13.7 °C 1019.9 hPa ENE 8 km/h 14.5 km/h 89 % 0 mm 0 W/m2
21:31 15.4 °C 13.6 °C 1019.9 hPa ENE 8 km/h 14.5 km/h 89 % 0 mm 0 W/m2
21:36 15.4 °C 13.6 °C 1020.2 hPa ENE 6.4 km/h 12.9 km/h 89 % 0 mm 0 W/m2
21:41 15.3 °C 13.5 °C 1020.2 hPa ENE 6.4 km/h 16.1 km/h 89 % 0 mm 0 W/m2
21:46 15.3 °C 13.5 °C 1020.2 hPa ENE 8 km/h 16.1 km/h 89 % 0 mm 0 W/m2
21:51 15.2 °C 13.4 °C 1020.2 hPa ENE 8 km/h 14.5 km/h 89 % 0 mm 0 W/m2
21:56 15.2 °C 13.4 °C 1020.2 hPa ENE 8 km/h 16.1 km/h 89 % 0 mm 0 W/m2
22:01 15.2 °C 13.6 °C 1020.2 hPa ENE 8 km/h 16.1 km/h 90 % 0 mm 0 W/m2
22:06 15.2 °C 13.6 °C 1020.2 hPa ENE 6.4 km/h 12.9 km/h 90 % 0 mm 0 W/m2
22:11 15.1 °C 13.4 °C 1020.2 hPa East 6.4 km/h 14.5 km/h 90 % 0 mm 0 W/m2
22:16 15.1 °C 13.4 °C 1020.2 hPa East 6.4 km/h 14.5 km/h 90 % 0 mm 0 W/m2
22:21 15.1 °C 13.4 °C 1020.2 hPa East 4.8 km/h 11.3 km/h 90 % 0 mm 0 W/m2
22:26 15.1 °C 13.4 °C 1020.2 hPa East 4.8 km/h 11.3 km/h 90 % 0 mm 0 W/m2
22:31 15.1 °C 13.4 °C 1020.2 hPa ENE 4.8 km/h 12.9 km/h 90 % 0 mm 0 W/m2
22:36 15.1 °C 13.4 °C 1020.2 hPa ENE 6.4 km/h 12.9 km/h 90 % 0 mm 0 W/m2
22:41 15.1 °C 13.4 °C 1020.2 hPa ENE 6.4 km/h 12.9 km/h 90 % 0 mm 0 W/m2
22:46 15.1 °C 13.4 °C 1019.9 hPa ENE 4.8 km/h 11.3 km/h 90 % 0 mm 0 W/m2
22:51 15.1 °C 13.4 °C 1019.9 hPa ENE 4.8 km/h 12.9 km/h 90 % 0 mm 0 W/m2
22:56 15.1 °C 13.4 °C 1019.9 hPa ENE 4.8 km/h 12.9 km/h 90 % 0 mm 0 W/m2
23:01 15.1 °C 13.4 °C 1019.9 hPa East 3.2 km/h 11.3 km/h 90 % 0 mm 0 W/m2
23:06 15.1 °C 13.4 °C 1019.9 hPa East 3.2 km/h 11.3 km/h 90 % 0 mm 0 W/m2
23:11 15.1 °C 13.4 °C 1019.9 hPa East 3.2 km/h 11.3 km/h 90 % 0 mm 0 W/m2
23:16 15.1 °C 13.3 °C 1019.9 hPa East 4.8 km/h 11.3 km/h 89 % 0 mm 0 W/m2
23:21 15 °C 13.2 °C 1019.9 hPa East 4.8 km/h 11.3 km/h 89 % 0 mm 0 W/m2
23:26 15 °C 13.2 °C 1019.9 hPa East 3.2 km/h 9.7 km/h 89 % 0 mm 0 W/m2
23:31 15 °C 13.4 °C 1019.9 hPa East 3.2 km/h 9.7 km/h 90 % 0 mm 0 W/m2
23:36 15.1 °C 13.3 °C 1019.9 hPa East 3.2 km/h 9.7 km/h 89 % 0 mm 0 W/m2
23:41 15 °C 13.2 °C 1019.5 hPa East 3.2 km/h 11.3 km/h 89 % 0 mm 0 W/m2
23:46 15 °C 13.2 °C 1019.5 hPa East 3.2 km/h 11.3 km/h 89 % 0 mm 0 W/m2
23:51 15 °C 13.2 °C 1019.5 hPa East 3.2 km/h 11.3 km/h 89 % 0 mm 0 W/m2
23:56 15 °C 13.2 °C 1019.5 hPa ESE 4.8 km/h 11.3 km/h 89 % 0 mm 0 W/m2
Delerius-Weather
Compliments of Weather Underground - 2.25 mb

Data updates at regular intervals.